Time;durP1;ratioP1;P1;durP2;ratioP2;P2;SDS_P1;SDS_P2;PMS_P1;PMS_P2;Temp;Humidity;BMP_temperature;BMP_pressure;BME280_temperature;BME280_humidity;BME280_pressure;Samples;Min_cycle;Max_cycle;Signal;HPM_P1;HPM_P2
2022/01/20 00:02:19;;;;;;;12.45;3.17;;;4.70;99.90;;;;;;5054516;28;20051;-61
2022/01/20 00:04:51;;;;;;;13.93;3.00;;;4.90;99.90;;;;;;5053187;28;20033;-61
2022/01/20 00:07:31;;;;;;;15.85;2.70;;;4.80;99.90;;;;;;5054160;28;20479;-61
2022/01/20 00:26:21;;;;;;;13.90;2.63;;;4.70;99.90;;;;;;5053786;28;20041;-61
2022/01/20 00:28:50;;;;;;;9.13;2.58;;;4.60;99.90;;;;;;5052566;28;20465;-61
2022/01/20 00:34:07;;;;;;;10.80;2.92;;;;;;;;;;5036007;28;20099;-61
2022/01/20 00:39:03;;;;;;;18.27;2.40;;;4.50;99.90;;;;;;5053609;28;20513;-61
2022/01/20 00:41:29;;;;;;;17.10;2.97;;;4.40;99.90;;;;;;5035783;28;20091;-61
2022/01/20 00:43:54;;;;;;;12.05;2.70;;;;;;;;;;5053619;28;20032;-61
2022/01/20 00:46:21;;;;;;;17.02;2.55;;;4.30;99.90;;;;;;5052296;28;20051;-60
2022/01/20 00:48:47;;;;;;;14.90;2.45;;;4.40;99.90;;;;;;5035464;28;20049;-61
2022/01/20 00:51:13;;;;;;;13.73;3.35;;;4.50;99.90;;;;;;5042911;28;20063;-61
2022/01/20 00:53:43;;;;;;;15.95;2.63;;;;;;;;;;5055308;28;20086;-61
2022/01/20 00:56:13;;;;;;;14.10;2.70;;;4.50;99.90;;;;;;5055553;28;20522;-61
2022/01/20 00:58:39;;;;;;;10.38;2.38;;;4.70;99.90;;;;;;5072081;28;20513;-61
2022/01/20 01:01:05;;;;;;;9.10;2.60;;;4.70;99.90;;;;;;5055692;28;20040;-61
2022/01/20 01:03:30;;;;;;;11.63;3.13;;;4.90;99.90;;;;;;5073810;28;20101;-61
2022/01/20 01:06:14;;;;;;;17.60;3.33;;;5.00;99.90;;;;;;5073277;28;20469;-61
2022/01/20 01:08:40;;;;;;;16.27;3.20;;;5.30;99.90;;;;;;5055685;28;20036;-61
2022/01/20 01:11:06;;;;;;;10.27;2.78;;;5.20;99.90;;;;;;5072739;28;20095;-61
2022/01/20 01:13:32;;;;;;;9.98;2.33;;;5.40;99.90;;;;;;5079931;28;20036;-61
2022/01/20 01:15:58;;;;;;;7.65;2.00;;;5.00;99.90;;;;;;5062317;28;20094;-61
2022/01/20 01:21:14;;;;;;;9.77;1.85;;;4.90;99.90;;;;;;5080069;28;20048;-61
2022/01/20 01:23:42;;;;;;;7.13;1.90;;;5.10;99.90;;;;;;5061944;28;20059;-61
2022/01/20 01:26:12;;;;;;;10.32;1.80;;;4.90;99.90;;;;;;5078806;28;20128;-61
2022/01/20 01:28:38;;;;;;;7.45;1.75;;;4.80;99.90;;;;;;5061901;28;20123;-61
2022/01/20 01:33:50;;;;;;;7.75;1.90;;;;;;;;;;5079955;28;20109;-61
2022/01/20 01:36:19;;;;;;;6.63;1.40;;;4.70;99.90;;;;;;5079904;28;20488;-61
2022/01/20 01:38:45;;;;;;;9.25;1.75;;;4.70;99.90;;;;;;5078287;28;20040;-61
2022/01/20 01:41:15;;;;;;;11.02;1.58;;;4.60;99.90;;;;;;5061788;28;20040;-61
2022/01/20 01:43:44;;;;;;;6.00;2.13;;;4.60;99.90;;;;;;5045256;28;20045;-61
2022/01/20 01:46:12;;;;;;;6.13;1.15;;;4.50;99.90;;;;;;5061659;28;20375;-61
2022/01/20 01:48:40;;;;;;;5.10;1.65;;;;;;;;;;5079597;28;20036;-61
2022/01/20 01:51:06;;;;;;;5.00;1.63;;;;;;;;;;5061639;28;20143;-61
2022/01/20 01:53:31;;;;;;;10.25;1.35;;;4.80;99.90;;;;;;5079485;28;20036;-61
2022/01/20 01:55:57;;;;;;;10.00;2.15;;;;;;;;;;5062020;28;20037;-61
2022/01/20 01:58:23;;;;;;;8.38;1.73;;;4.60;99.90;;;;;;5061298;28;20128;-61
2022/01/20 02:00:49;;;;;;;13.85;4.07;;;;;;;;;;5061587;28;20123;-61
2022/01/20 02:03:15;;;;;;;9.30;2.28;;;4.90;99.90;;;;;;5061559;28;20454;-61
2022/01/20 02:05:58;;;;;;;12.95;1.98;;;4.90;99.90;;;;;;5078489;28;20132;-61
2022/01/20 02:08:37;;;;;;;7.47;2.05;;;;;;;;;;5061595;28;20055;-61
2022/01/20 02:19:18;;;;;;;11.63;2.72;;;4.80;99.90;;;;;;5079148;28;20074;-61
2022/01/20 02:21:52;;;;;;;9.60;2.15;;;;;;;;;;5061269;28;20052;-61
2022/01/20 02:24:19;;;;;;;10.95;2.80;;;4.90;99.90;;;;;;5075704;28;20119;-61
2022/01/20 02:26:45;;;;;;;12.20;2.00;;;4.90;99.90;;;;;;5058086;28;20055;-61
2022/01/20 02:29:11;;;;;;;10.00;1.92;;;4.80;99.90;;;;;;5057947;28;20112;-61
2022/01/20 02:31:37;;;;;;;14.07;2.17;;;5.00;99.90;;;;;;5058075;28;20044;-61
2022/01/20 02:34:03;;;;;;;17.73;2.83;;;5.00;99.90;;;;;;5074604;28;20044;-61
2022/01/20 02:36:30;;;;;;;10.30;1.65;;;5.00;99.90;;;;;;5076382;28;20371;-61
2022/01/20 02:39:02;;;;;;;12.05;2.22;;;5.00;99.90;;;;;;5075912;28;20041;-61
2022/01/20 02:46:57;;;;;;;9.18;1.75;;;5.00;99.90;;;;;;5057803;28;20049;-61
2022/01/20 02:49:22;;;;;;;8.45;1.92;;;4.90;99.90;;;;;;5075586;28;20036;-61
2022/01/20 02:51:53;;;;;;;14.18;1.92;;;5.00;99.90;;;;;;5075533;28;20033;-61
2022/01/20 02:54:19;;;;;;;7.10;2.10;;;4.90;99.90;;;;;;5057775;28;20398;-61
2022/01/20 02:56:46;;;;;;;10.38;2.20;;;4.70;99.90;;;;;;5074659;28;20107;-61
2022/01/20 02:59:12;;;;;;;10.77;2.40;;;4.80;99.90;;;;;;5075971;28;20063;-61
2022/01/20 03:01:38;;;;;;;14.82;2.63;;;4.80;99.90;;;;;;5075416;28;20502;-61
2022/01/20 03:04:03;;;;;;;9.88;2.65;;;4.70;99.90;;;;;;5057571;28;20036;-62
2022/01/20 03:06:29;;;;;;;13.80;2.70;;;4.80;99.90;;;;;;5057726;28;20047;-61
2022/01/20 03:08:55;;;;;;;13.18;3.40;;;4.70;99.90;;;;;;5057385;28;20040;-61
2022/01/20 03:11:21;;;;;;;11.23;2.72;;;4.70;99.90;;;;;;5075574;28;20060;-62
2022/01/20 03:13:46;;;;;;;12.35;2.83;;;4.70;99.90;;;;;;5057508;28;20040;-62
2022/01/20 03:16:12;;;;;;;17.85;3.53;;;4.70;99.90;;;;;;5057385;28;20470;-61
2022/01/20 03:18:37;;;;;;;21.65;3.80;;;4.60;99.90;;;;;;5075357;28;20036;-61
2022/01/20 03:21:03;;;;;;;18.77;3.30;;;4.60;99.90;;;;;;5075412;28;20036;-61
2022/01/20 03:23:28;;;;;;;19.17;3.10;;;4.50;99.90;;;;;;5075057;28;20474;-62
2022/01/20 03:25:54;;;;;;;16.50;3.30;;;4.60;99.90;;;;;;5057167;28;20043;-62
2022/01/20 03:28:20;;;;;;;17.42;3.65;;;4.70;99.90;;;;;;5074930;28;20043;-62
2022/01/20 03:30:45;;;;;;;20.92;3.40;;;4.70;99.90;;;;;;5057037;28;20055;-61
2022/01/20 03:33:11;;;;;;;26.85;3.83;;;4.70;99.90;;;;;;5075139;28;20041;-61
2022/01/20 03:35:37;;;;;;;20.38;4.15;;;4.80;99.90;;;;;;5074676;28;20043;-61
2022/01/20 03:38:03;;;;;;;20.70;3.15;;;4.70;99.90;;;;;;5057047;28;20409;-61
2022/01/20 03:40:29;;;;;;;17.70;3.60;;;4.50;99.90;;;;;;5074499;28;20040;-62
2022/01/20 03:42:55;;;;;;;18.67;3.30;;;;;;;;;;5056707;28;20041;-63
2022/01/20 03:45:25;;;;;;;18.63;5.28;;;4.50;99.90;;;;;;5056620;28;20044;-61
2022/01/20 03:47:54;;;;;;;27.40;4.03;;;;;;;;;;5040395;28;20040;-61
2022/01/20 03:53:05;;;;;;;22.27;4.18;;;4.30;99.90;;;;;;5056817;28;20048;-62
2022/01/20 03:55:30;;;;;;;16.23;3.75;;;4.40;99.90;;;;;;5056431;28;20036;-62
2022/01/20 03:57:56;;;;;;;13.95;3.55;;;4.40;99.90;;;;;;5056537;28;20047;-61
2022/01/20 04:00:21;;;;;;;27.02;4.57;;;4.40;99.90;;;;;;5056362;28;20380;-61
2022/01/20 04:02:47;;;;;;;20.13;4.53;;;;;;;;;;5074419;28;20044;-62
2022/01/20 04:05:13;;;;;;;16.25;4.00;;;;;;;;;;5056257;28;20040;-61
2022/01/20 04:07:39;;;;;;;22.75;4.80;;;4.30;99.90;;;;;;5072876;28;20044;-61
2022/01/20 04:10:05;;;;;;;18.48;4.20;;;4.40;99.90;;;;;;5056673;28;20037;-61
2022/01/20 04:12:31;;;;;;;21.42;4.53;;;4.30;99.90;;;;;;5074352;28;20051;-61
2022/01/20 04:14:56;;;;;;;21.48;3.20;;;4.40;99.90;;;;;;5056229;28;20040;-61
2022/01/20 04:17:26;;;;;;;19.65;3.95;;;;;;;;;;5072742;28;20032;-62
2022/01/20 04:19:52;;;;;;;21.55;4.05;;;4.50;99.90;;;;;;5056382;28;20589;-62
2022/01/20 04:22:17;;;;;;;22.90;5.00;;;4.40;99.90;;;;;;5074033;28;20041;-61
2022/01/20 04:24:43;;;;;;;19.25;3.42;;;4.70;99.90;;;;;;5056062;28;20508;-61
2022/01/20 04:27:08;;;;;;;16.15;3.53;;;4.40;99.90;;;;;;5072899;28;20528;-61
2022/01/20 04:29:34;;;;;;;17.15;4.40;;;4.40;99.90;;;;;;5056415;28;20076;-61
2022/01/20 04:32:00;;;;;;;14.23;2.88;;;4.40;99.90;;;;;;5056103;28;20486;-62
2022/01/20 04:34:25;;;;;;;12.43;2.80;;;4.40;99.90;;;;;;5056243;28;20051;-61
2022/01/20 04:36:53;;;;;;;15.68;2.60;;;4.40;99.90;;;;;;5073948;28;20060;-62
2022/01/20 04:39:23;;;;;;;13.50;2.45;;;4.50;99.90;;;;;;5056053;28;20493;-61
2022/01/20 04:41:50;;;;;;;13.48;2.80;;;4.30;99.90;;;;;;5056036;28;20045;-61
2022/01/20 04:58:15;;;;;;;16.27;3.05;;;4.30;99.90;;;;;;5065509;28;20035;-62
2022/01/20 05:00:41;;;;;;;19.00;2.65;;;4.40;99.90;;;;;;5075240;28;20044;-62
2022/01/20 05:03:06;;;;;;;12.55;2.38;;;4.40;99.90;;;;;;5093261;28;20125;-62
2022/01/20 05:05:32;;;;;;;13.23;3.13;;;4.20;99.90;;;;;;5075028;28;20090;-62
2022/01/20 05:07:59;;;;;;;18.90;2.95;;;;;;;;;;5065566;28;20037;-62
2022/01/20 05:10:27;;;;;;;15.95;2.67;;;3.90;99.90;;;;;;5057186;28;20049;-62
2022/01/20 05:15:20;;;;;;;10.35;2.33;;;3.60;99.90;;;;;;5052803;28;20047;-61
2022/01/20 05:17:46;;;;;;;9.75;2.10;;;;;;;;;;5070723;28;20036;-61
2022/01/20 05:20:12;;;;;;;16.23;3.15;;;;;;;;;;5051078;28;20551;-65
2022/01/20 05:22:38;;;;;;;8.18;2.17;;;3.70;99.90;;;;;;5053764;28;20032;-63
2022/01/20 05:25:04;;;;;;;14.45;2.60;;;3.60;99.90;;;;;;5035262;28;20052;-63
2022/01/20 05:27:30;;;;;;;13.50;2.25;;;3.60;99.90;;;;;;5049541;28;20045;-64
2022/01/20 05:29:55;;;;;;;11.68;2.60;;;3.40;99.90;;;;;;5055042;28;20055;-61
2022/01/20 05:32:22;;;;;;;7.80;2.10;;;;;;;;;;5077571;28;20078;-63
2022/01/20 05:34:48;;;;;;;10.50;2.28;;;3.30;99.90;;;;;;5071279;28;20045;-63
2022/01/20 05:37:14;;;;;;;11.57;2.72;;;3.40;99.90;;;;;;5088250;28;20044;-63
2022/01/20 05:39:40;;;;;;;13.27;3.05;;;3.40;99.90;;;;;;5072483;28;20038;-64
2022/01/20 05:42:07;;;;;;;13.68;3.65;;;3.30;99.90;;;;;;5071803;28;20066;-63
2022/01/20 05:44:32;;;;;;;9.68;1.95;;;3.10;99.90;;;;;;5071356;28;20074;-63
2022/01/20 05:46:58;;;;;;;8.10;2.17;;;3.20;99.90;;;;;;5070847;28;20433;-64
2022/01/20 05:49:24;;;;;;;9.00;2.53;;;3.20;99.90;;;;;;5072030;28;20036;-63
2022/01/20 05:51:52;;;;;;;11.20;3.10;;;;;;;;;;5055380;28;20048;-62
2022/01/20 05:54:18;;;;;;;10.38;3.20;;;;;;;;;;5054429;28;20383;-62
2022/01/20 05:56:44;;;;;;;9.70;2.30;;;3.10;99.90;;;;;;5054504;28;20049;-62
2022/01/20 05:59:10;;;;;;;11.38;2.45;;;3.10;99.90;;;;;;5073615;28;20219;-62
2022/01/20 06:01:37;;;;;;;13.23;2.28;;;3.10;99.90;;;;;;5076380;28;20047;-63
2022/01/20 06:04:05;;;;;;;16.00;2.83;;;3.10;99.90;;;;;;5095482;28;20032;-63
2022/01/20 06:06:32;;;;;;;12.95;3.00;;;;;;;;;;5071160;28;20393;-63
2022/01/20 06:08:58;;;;;;;12.32;2.88;;;;;;;;;;5075178;28;20374;-64
2022/01/20 06:11:24;;;;;;;14.20;3.03;;;;;;;;;;5065937;28;20053;-63
2022/01/20 06:13:49;;;;;;;14.15;2.33;;;3.20;99.90;;;;;;5080573;28;20496;-63
2022/01/20 06:16:16;;;;;;;12.65;2.67;;;3.10;99.90;;;;;;5090793;28;20047;-62
2022/01/20 06:18:41;;;;;;;11.40;2.42;;;3.10;99.90;;;;;;5096313;28;20443;-62
2022/01/20 06:21:07;;;;;;;11.70;2.85;;;;;;;;;;5077826;28;20051;-62
2022/01/20 06:23:34;;;;;;;16.90;3.50;;;;;;;;;;5077824;28;20097;-62
2022/01/20 06:26:05;;;;;;;13.40;3.22;;;;;;;;;;5077105;28;20135;-62
2022/01/20 06:28:35;;;;;;;13.07;2.78;;;;;;;;;;5076418;28;20048;-64
2022/01/20 06:31:00;;;;;;;8.25;2.47;;;3.30;99.90;;;;;;5095228;28;20067;-62
2022/01/20 06:33:26;;;;;;;12.38;2.47;;;;;;;;;;5092432;28;20532;-63
2022/01/20 06:35:52;;;;;;;13.65;2.33;;;3.20;99.90;;;;;;5095139;28;20075;-62
2022/01/20 06:38:18;;;;;;;8.27;2.35;;;;;;;;;;5074386;28;20079;-62
2022/01/20 06:40:45;;;;;;;13.73;2.55;;;;;;;;;;5074977;28;20048;-63
2022/01/20 06:43:10;;;;;;;13.90;2.63;;;3.20;99.90;;;;;;5078607;28;20036;-62
2022/01/20 06:45:36;;;;;;;11.20;2.80;;;;;;;;;;5095258;28;20036;-62
2022/01/20 06:48:02;;;;;;;13.48;2.60;;;3.40;99.90;;;;;;5095265;28;20036;-63
2022/01/20 06:50:28;;;;;;;15.18;2.70;;;3.10;99.90;;;;;;5074198;28;20036;-62
2022/01/20 06:52:54;;;;;;;10.90;3.45;;;3.20;99.90;;;;;;5070933;28;20029;-63
2022/01/20 06:55:20;;;;;;;15.18;3.03;;;3.10;99.90;;;;;;5061864;28;20033;-62
2022/01/20 06:57:46;;;;;;;13.65;3.00;;;;;;;;;;5055547;28;20540;-62
2022/01/20 07:00:19;;;;;;;14.20;4.15;;;3.10;99.90;;;;;;5078890;28;20048;-63
2022/01/20 07:02:46;;;;;;;16.25;3.65;;;3.30;99.90;;;;;;5082160;28;20523;-62
2022/01/20 07:05:13;;;;;;;10.90;2.72;;;3.10;99.90;;;;;;5075863;28;20394;-62
2022/01/20 07:07:39;;;;;;;16.33;3.13;;;3.00;99.90;;;;;;5068485;28;20518;-62
2022/01/20 07:10:05;;;;;;;13.38;2.97;;;3.10;99.90;;;;;;5068332;28;20118;-63
2022/01/20 07:12:31;;;;;;;12.32;2.80;;;2.90;99.90;;;;;;5080703;28;20032;-62
2022/01/20 07:14:57;;;;;;;15.20;2.63;;;3.00;99.90;;;;;;5078444;28;20410;-62
2022/01/20 07:17:22;;;;;;;14.35;2.70;;;2.90;99.90;;;;;;5085225;28;20035;-62
2022/01/20 07:19:48;;;;;;;12.50;3.03;;;;;;;;;;5085808;28;20475;-62
2022/01/20 07:22:15;;;;;;;13.38;3.17;;;3.10;99.90;;;;;;5068312;28;20039;-62
2022/01/20 07:24:41;;;;;;;17.17;2.63;;;;;;;;;;5080268;28;20103;-63
2022/01/20 07:27:07;;;;;;;12.63;2.92;;;3.30;99.90;;;;;;5061633;28;20532;-63
2022/01/20 07:29:32;;;;;;;9.80;2.50;;;3.20;99.90;;;;;;5084546;28;20067;-63
2022/01/20 07:31:59;;;;;;;15.55;2.97;;;3.20;99.90;;;;;;5067680;28;20032;-63
2022/01/20 07:34:25;;;;;;;16.45;2.78;;;;;;;;;;5079271;28;20036;-62
2022/01/20 07:36:51;;;;;;;7.28;2.58;;;;;;;;;;5067263;28;20513;-63
2022/01/20 07:39:17;;;;;;;13.77;2.50;;;3.30;99.90;;;;;;5054532;28;20041;-62
2022/01/20 07:41:43;;;;;;;13.70;2.50;;;3.30;99.90;;;;;;5052904;28;20075;-62
2022/01/20 07:44:09;;;;;;;10.93;2.00;;;;;;;;;;5072408;28;20094;-62
2022/01/20 07:46:36;;;;;;;12.40;2.10;;;3.30;99.90;;;;;;5059280;28;20050;-63
2022/01/20 07:49:02;;;;;;;9.98;1.92;;;3.30;99.90;;;;;;5056381;28;20040;-63
2022/01/20 07:51:28;;;;;;;11.15;2.10;;;;;;;;;;5069219;28;20070;-62
2022/01/20 07:53:54;;;;;;;6.63;2.47;;;;;;;;;;5078848;28;20032;-63
2022/01/20 07:56:20;;;;;;;9.95;2.05;;;3.20;99.90;;;;;;5059400;28;20041;-63
2022/01/20 07:58:45;;;;;;;17.13;2.75;;;3.30;99.90;;;;;;5077831;28;20040;-63
2022/01/20 08:01:11;;;;;;;12.68;2.70;;;3.20;99.90;;;;;;5079029;28;20082;-63
2022/01/20 08:03:37;;;;;;;16.33;3.00;;;3.20;99.90;;;;;;5082721;28;20036;-63
2022/01/20 08:06:03;;;;;;;13.18;2.50;;;3.30;99.90;;;;;;5083222;28;20043;-63
2022/01/20 08:08:28;;;;;;;12.10;2.92;;;3.50;99.90;;;;;;5083405;28;20032;-63
2022/01/20 08:10:54;;;;;;;13.48;2.97;;;3.50;99.90;;;;;;5081085;28;20052;-63
2022/01/20 08:13:20;;;;;;;11.35;2.55;;;;;;;;;;5066864;28;20044;-63
2022/01/20 08:15:46;;;;;;;16.55;2.65;;;3.60;99.90;;;;;;5081444;28;20044;-63
2022/01/20 08:18:12;;;;;;;15.73;3.05;;;3.60;99.90;;;;;;5065254;28;20482;-63
2022/01/20 08:20:38;;;;;;;12.93;2.63;;;3.60;99.90;;;;;;5053344;28;20053;-63
2022/01/20 08:23:04;;;;;;;15.15;3.40;;;;;;;;;;5070619;28;20035;-63
2022/01/20 08:25:30;;;;;;;12.95;3.30;;;3.90;99.90;;;;;;5069061;28;20047;-63
2022/01/20 08:27:55;;;;;;;16.38;3.80;;;4.10;99.90;;;;;;5060708;28;20287;-63
2022/01/20 08:30:23;;;;;;;14.98;2.97;;;4.00;99.90;;;;;;5054595;28;20033;-63
2022/01/20 08:32:49;;;;;;;18.70;3.22;;;4.20;99.90;;;;;;5058263;28;20032;-63
2022/01/20 08:35:16;;;;;;;12.38;3.10;;;4.00;99.90;;;;;;5050734;28;20049;-63
2022/01/20 08:37:45;;;;;;;19.10;2.85;;;4.20;99.90;;;;;;5061367;28;20048;-63
2022/01/20 08:40:15;;;;;;;15.43;2.50;;;3.90;99.90;;;;;;5061803;28;20044;-63
2022/01/20 08:42:44;;;;;;;19.35;3.40;;;4.00;99.90;;;;;;5064121;28;20053;-63
2022/01/20 08:45:13;;;;;;;14.27;3.13;;;4.20;99.90;;;;;;5050082;28;20175;-63
2022/01/20 08:47:39;;;;;;;16.40;3.33;;;4.30;99.90;;;;;;5050210;28;20088;-63
2022/01/20 08:50:06;;;;;;;8.93;2.25;;;4.40;99.90;;;;;;5050835;28;20045;-63
2022/01/20 08:52:31;;;;;;;17.23;4.47;;;4.70;99.90;;;;;;5062896;28;20401;-63
2022/01/20 08:54:58;;;;;;;14.02;3.05;;;4.80;99.90;;;;;;5071720;28;20044;-63
2022/01/20 08:57:28;;;;;;;21.92;3.13;;;4.80;99.90;;;;;;5071932;28;20070;-63
2022/01/20 08:59:54;;;;;;;15.25;3.25;;;;;;;;;;5050302;28;20090;-63
2022/01/20 09:02:20;;;;;;;24.73;3.75;;;5.40;99.90;;;;;;5046886;28;20077;-63
2022/01/20 09:04:46;;;;;;;13.02;2.70;;;5.40;99.90;;;;;;5068088;28;20040;-63
2022/01/20 09:07:11;;;;;;;13.82;3.90;;;5.30;99.90;;;;;;5050318;28;20449;-63
2022/01/20 09:09:46;;;;;;;13.55;2.92;;;5.30;99.90;;;;;;5061181;28;20039;-64
2022/01/20 09:17:26;;;;;;;13.13;3.33;;;;;;;;;;5070841;28;20465;-64
2022/01/20 09:19:51;;;;;;;11.75;3.03;;;6.40;99.90;;;;;;5050565;28;20045;-63
2022/01/20 09:22:18;;;;;;;16.92;3.63;;;6.40;99.90;;;;;;5061945;28;20032;-63
2022/01/20 09:24:45;;;;;;;28.33;5.55;;;;;;;;;;5058815;28;20040;-64
2022/01/20 09:27:11;;;;;;;19.42;3.17;;;6.50;99.90;;;;;;5064714;28;20095;-63
2022/01/20 09:29:37;;;;;;;15.90;4.32;;;6.50;99.90;;;;;;5049868;28;20041;-63
2022/01/20 09:32:06;;;;;;;14.55;3.45;;;;;;;;;;5050242;28;20044;-64
2022/01/20 09:34:32;;;;;;;13.13;3.40;;;8.00;99.90;;;;;;5070162;28;20099;-63
2022/01/20 09:36:57;;;;;;;14.75;3.38;;;7.60;99.90;;;;;;5073838;28;20500;-64
2022/01/20 09:39:23;;;;;;;12.40;2.85;;;7.50;99.90;;;;;;5054292;28;20040;-63
2022/01/20 09:41:49;;;;;;;14.18;2.90;;;7.60;99.90;;;;;;5068455;28;20075;-63
2022/01/20 09:44:15;;;;;;;11.10;2.85;;;;;;;;;;5061636;28;20033;-63
2022/01/20 09:46:41;;;;;;;13.05;4.05;;;;;;;;;;5064472;28;20041;-64
2022/01/20 09:49:09;;;;;;;12.50;2.67;;;;;;;;;;5063354;28;20465;-65
2022/01/20 09:51:35;;;;;;;10.38;2.33;;;7.70;99.90;;;;;;5059602;28;20125;-63
2022/01/20 09:54:00;;;;;;;12.80;3.00;;;7.70;99.90;;;;;;5083123;28;20032;-63
2022/01/20 09:56:26;;;;;;;13.93;4.00;;;;;;;;;;5081566;28;20044;-64
2022/01/20 09:58:52;;;;;;;10.73;3.03;;;7.80;99.90;;;;;;5063386;28;20086;-64
2022/01/20 10:01:38;;;;;;;14.43;3.10;;;8.10;99.90;;;;;;5084419;28;20043;-64
2022/01/20 10:04:03;;;;;;;12.95;2.10;;;8.20;99.90;;;;;;5079893;28;20620;-64
2022/01/20 10:06:29;;;;;;;8.82;3.00;;;8.10;99.90;;;;;;5083294;28;20028;-64
2022/01/20 10:09:02;;;;;;;10.93;2.33;;;8.40;99.90;;;;;;5074645;28;20032;-64
2022/01/20 10:11:29;;;;;;;11.57;3.22;;;8.30;99.90;;;;;;5069338;28;20059;-65
2022/01/20 10:14:00;;;;;;;12.38;2.38;;;7.90;99.90;;;;;;5068273;28;20402;-65
2022/01/20 10:16:30;;;;;;;18.38;3.58;;;;;;;;;;5079708;28;20490;-64
2022/01/20 10:18:59;;;;;;;11.27;3.05;;;7.60;99.90;;;;;;5081743;28;20046;-64
2022/01/20 10:21:34;;;;;;;13.80;3.53;;;7.50;99.90;;;;;;5084080;28;20058;-64
2022/01/20 10:24:18;;;;;;;17.57;3.37;;;7.20;99.90;;;;;;5081903;28;20037;-65
2022/01/20 10:26:44;;;;;;;14.45;2.80;;;;;;;;;;5086348;28;20686;-65
2022/01/20 10:29:15;;;;;;;10.50;2.80;;;7.40;99.90;;;;;;5067663;28;20047;-65
2022/01/20 10:31:45;;;;;;;12.23;2.83;;;7.20;99.90;;;;;;5082776;28;20044;-64
2022/01/20 10:34:20;;;;;;;9.25;3.30;;;;;;;;;;5081048;28;20560;-64
2022/01/20 10:36:53;;;;;;;12.88;3.20;;;6.90;99.90;;;;;;5082269;28;20095;-64
2022/01/20 10:39:40;;;;;;;11.60;2.10;;;6.50;99.90;;;;;;5067640;28;20044;-65
2022/01/20 10:42:08;;;;;;;9.85;2.63;;;6.40;99.90;;;;;;5063863;28;20045;-65
2022/01/20 10:44:42;;;;;;;10.90;1.92;;;6.30;99.90;;;;;;5061878;28;20036;-66
2022/01/20 10:47:15;;;;;;;8.80;2.17;;;6.40;99.90;;;;;;5061951;28;20094;-65
2022/01/20 10:49:42;;;;;;;10.23;3.03;;;7.00;99.90;;;;;;5081303;28;20376;-65
2022/01/20 10:52:09;;;;;;;8.95;2.25;;;6.90;99.90;;;;;;5079831;28;20112;-65
2022/01/20 10:54:48;;;;;;;6.03;1.90;;;;;;;;;;5077427;28;20028;-64
2022/01/20 10:57:17;;;;;;;12.30;2.90;;;6.70;99.90;;;;;;5061867;28;20053;-64
2022/01/20 11:00:08;;;;;;;9.88;2.30;;;7.00;99.90;;;;;;5065616;28;20072;-64
2022/01/20 11:02:35;;;;;;;11.23;2.22;;;6.80;99.90;;;;;;5068310;28;20050;-65
2022/01/20 11:05:01;;;;;;;8.77;2.15;;;6.70;99.90;;;;;;5083855;28;20050;-63
2022/01/20 11:07:30;;;;;;;6.93;1.88;;;;;;;;;;5067354;28;20063;-63
2022/01/20 11:10:02;;;;;;;8.00;2.38;;;6.40;99.90;;;;;;5066653;28;20040;-65
2022/01/20 11:12:28;;;;;;;9.02;2.08;;;6.30;99.90;;;;;;5061805;28;20183;-66
2022/01/20 11:14:56;;;;;;;9.93;2.70;;;6.20;99.90;;;;;;5052509;28;20441;-64
2022/01/20 11:17:25;;;;;;;7.05;1.73;;;;;;;;;;5061561;28;20098;-65
2022/01/20 11:19:51;;;;;;;5.20;1.65;;;5.80;99.90;;;;;;5063216;28;20071;-65
2022/01/20 11:22:19;;;;;;;5.63;1.95;;;6.40;99.90;;;;;;5065603;28;20203;-65
2022/01/20 11:24:56;;;;;;;9.13;2.92;;;;;;;;;;5064244;28;20041;-65
2022/01/20 11:27:22;;;;;;;5.93;1.95;;;;;;;;;;5050716;28;20057;-65
2022/01/20 11:29:50;;;;;;;12.35;2.65;;;6.50;99.90;;;;;;5058703;28;20037;-65
2022/01/20 11:32:22;;;;;;;10.90;2.45;;;6.90;99.90;;;;;;5053300;28;20123;-65
2022/01/20 11:34:54;;;;;;;7.03;2.50;;;;;;;;;;5071141;28;20046;-64
2022/01/20 11:37:23;;;;;;;11.93;2.40;;;6.50;99.90;;;;;;5058445;28;20048;-66
2022/01/20 11:39:53;;;;;;;12.50;2.53;;;6.70;99.90;;;;;;5061306;28;20127;-66
2022/01/20 11:42:24;;;;;;;19.83;2.97;;;6.50;99.90;;;;;;5059204;28;20082;-66
2022/01/20 11:44:51;;;;;;;11.80;2.63;;;;;;;;;;5072773;28;20389;-67
2022/01/20 11:47:17;;;;;;;10.85;2.55;;;6.80;99.90;;;;;;5076758;28;20044;-65
2022/01/20 11:49:43;;;;;;;9.38;2.83;;;6.70;99.90;;;;;;5075585;28;20040;-67
2022/01/20 11:52:10;;;;;;;10.85;2.30;;;6.70;99.90;;;;;;5083278;28;20366;-67
2022/01/20 11:54:41;;;;;;;10.60;2.70;;;6.40;99.90;;;;;;5083846;28;20123;-66
2022/01/20 11:57:09;;;;;;;9.80;2.33;;;;;;;;;;5083267;28;20044;-67
2022/01/20 11:59:36;;;;;;;10.38;2.65;;;;;;;;;;5079210;28;20758;-66
2022/01/20 12:02:01;;;;;;;13.73;2.75;;;7.30;99.90;;;;;;5074889;28;20039;-67
2022/01/20 12:04:33;;;;;;;16.30;2.60;;;7.50;99.90;;;;;;5067102;28;20040;-67
2022/01/20 12:06:58;;;;;;;12.98;2.60;;;7.10;99.90;;;;;;5080934;28;20040;-66
2022/01/20 12:09:35;;;;;;;13.63;2.60;;;;;;;;;;5083073;28;20558;-67
2022/01/20 12:12:02;;;;;;;14.15;2.70;;;;;;;;;;5080252;28;20070;-67
2022/01/20 12:14:38;;;;;;;14.65;2.95;;;8.20;99.90;;;;;;5082347;28;20448;-67
2022/01/20 12:17:11;;;;;;;11.98;2.70;;;8.20;99.90;;;;;;5076878;28;20036;-67
2022/01/20 12:19:38;;;;;;;16.52;3.58;;;8.00;99.90;;;;;;5058115;28;20032;-67
2022/01/20 12:22:05;;;;;;;17.15;3.53;;;9.00;99.90;;;;;;5082890;28;20040;-67
2022/01/20 12:24:32;;;;;;;17.33;3.42;;;9.60;99.90;;;;;;5079390;28;20086;-67
2022/01/20 12:26:58;;;;;;;12.48;2.78;;;;;;;;;;5066196;28;20044;-67
2022/01/20 12:29:36;;;;;;;12.23;2.75;;;10.00;99.90;;;;;;5079565;28;20040;-68
2022/01/20 12:32:10;;;;;;;15.10;4.00;;;9.90;99.90;;;;;;5063763;28;20067;-67
2022/01/20 12:34:36;;;;;;;20.17;3.58;;;9.50;99.90;;;;;;5080043;28;20040;-67
2022/01/20 12:37:02;;;;;;;17.13;4.38;;;9.50;99.90;;;;;;5075100;28;20516;-67
2022/01/20 12:39:30;;;;;;;16.33;3.53;;;9.20;99.90;;;;;;5058662;28;20097;-68
2022/01/20 12:42:05;;;;;;;9.43;3.50;;;9.20;99.90;;;;;;5058299;28;20056;-67
2022/01/20 12:44:39;;;;;;;16.63;3.45;;;9.20;99.90;;;;;;5055260;28;20079;-67
2022/01/20 12:47:05;;;;;;;15.25;3.47;;;8.80;99.90;;;;;;5051055;28;20060;-68
2022/01/20 12:49:30;;;;;;;15.65;2.60;;;8.40;99.90;;;;;;5049299;28;20162;-67
2022/01/20 12:51:57;;;;;;;13.23;3.13;;;8.10;99.90;;;;;;5066114;28;20040;-66
2022/01/20 12:54:34;;;;;;;14.68;3.20;;;7.90;99.90;;;;;;5058920;28;20052;-66
2022/01/20 12:57:06;;;;;;;16.38;3.85;;;7.30;99.90;;;;;;5052817;28;20170;-66
2022/01/20 12:59:40;;;;;;;15.02;3.47;;;7.20;99.90;;;;;;5066182;28;20040;-66
2022/01/20 13:02:23;;;;;;;16.20;3.10;;;8.10;99.90;;;;;;5070073;28;20041;-66
2022/01/20 13:04:54;;;;;;;13.10;3.45;;;8.30;99.90;;;;;;5078502;28;20040;-66
2022/01/20 13:07:19;;;;;;;12.20;3.20;;;8.60;99.90;;;;;;5079814;28;20051;-67
2022/01/20 13:09:49;;;;;;;8.70;2.83;;;8.30;99.90;;;;;;5072726;28;20040;-66
2022/01/20 13:12:17;;;;;;;13.27;2.60;;;8.30;99.90;;;;;;5076982;28;20048;-67
2022/01/20 13:14:48;;;;;;;13.48;3.53;;;8.10;99.90;;;;;;5073958;28;20044;-67
2022/01/20 13:17:22;;;;;;;11.60;2.60;;;;;;;;;;5081107;28;20533;-67
2022/01/20 13:19:49;;;;;;;15.23;3.17;;;8.40;99.90;;;;;;5047263;28;20090;-66
2022/01/20 13:22:24;;;;;;;12.10;2.10;;;8.40;99.90;;;;;;5049394;28;20478;-65
2022/01/20 13:24:50;;;;;;;12.93;2.63;;;8.40;99.90;;;;;;5063721;28;20411;-65
2022/01/20 13:27:16;;;;;;;11.50;2.45;;;8.70;99.90;;;;;;5058981;28;20044;-67
2022/01/20 13:29:46;;;;;;;18.10;2.40;;;8.70;99.90;;;;;;5057359;28;20419;-67
2022/01/20 13:32:12;;;;;;;10.65;2.28;;;8.70;99.90;;;;;;5066203;28;20045;-67
2022/01/20 13:34:38;;;;;;;15.07;2.58;;;;;;;;;;5062027;28;20048;-67
2022/01/20 13:37:04;;;;;;;11.88;2.40;;;8.80;99.90;;;;;;5072304;28;20036;-67
2022/01/20 13:39:36;;;;;;;15.05;2.60;;;8.70;99.90;;;;;;5060539;28;20078;-66
2022/01/20 13:42:06;;;;;;;8.93;2.72;;;8.30;99.90;;;;;;5061635;28;20047;-66
2022/01/20 13:47:17;;;;;;;14.38;2.80;;;;;;;;;;5067098;28;20077;-66
2022/01/20 13:49:48;;;;;;;11.63;2.50;;;7.40;99.90;;;;;;5073072;28;20072;-65
2022/01/20 13:52:18;;;;;;;13.95;2.75;;;7.10;99.90;;;;;;5076326;28;20040;-65
2022/01/20 13:54:45;;;;;;;10.38;2.85;;;;;;;;;;5068565;28;20040;-65
2022/01/20 13:57:10;;;;;;;7.00;1.95;;;6.60;99.90;;;;;;5051893;28;20398;-65
2022/01/20 13:59:55;;;;;;;6.78;2.70;;;6.50;99.90;;;;;;5077550;28;20036;-65
2022/01/20 14:02:22;;;;;;;5.68;2.08;;;6.10;99.90;;;;;;5075768;28;20083;-65
2022/01/20 14:04:50;;;;;;;8.32;1.98;;;6.00;99.90;;;;;;5050607;28;20044;-65
2022/01/20 14:07:16;;;;;;;7.15;1.80;;;;;;;;;;5054168;28;20449;-65
2022/01/20 14:09:42;;;;;;;8.88;1.73;;;;;;;;;;5050067;28;20513;-65
2022/01/20 14:12:10;;;;;;;6.50;1.83;;;;;;;;;;5055529;28;20049;-65
2022/01/20 14:14:36;;;;;;;8.70;1.77;;;;;;;;;;5058648;28;20080;-65
2022/01/20 14:17:07;;;;;;;9.68;2.42;;;5.40;99.90;;;;;;5070231;28;20090;-65
2022/01/20 14:19:36;;;;;;;12.65;2.45;;;;;;;;;;5073704;28;20043;-65
2022/01/20 14:22:05;;;;;;;9.45;2.30;;;;;;;;;;5073778;28;20116;-65